sensor_id;sensor_type;location;lat;lon;timestamp;P1;durP1;ratioP1;P2;durP2;ratioP2
15412;SDS011;7805;49.554;7.632;2023-04-01T00:00:15;3.43;;;1.07;;
15412;SDS011;7805;49.554;7.632;2023-04-01T00:02:41;5.87;;;1.03;;
15412;SDS011;7805;49.554;7.632;2023-04-01T00:05:07;3.97;;;1.20;;
15412;SDS011;7805;49.554;7.632;2023-04-01T00:07:35;2.73;;;1.03;;
15412;SDS011;7805;49.554;7.632;2023-04-01T00:10:05;6.33;;;1.60;;
15412;SDS011;7805;49.554;7.632;2023-04-01T00:12:32;4.07;;;1.57;;
15412;SDS011;7805;49.554;7.632;2023-04-01T00:14:58;3.63;;;1.00;;
15412;SDS011;7805;49.554;7.632;2023-04-01T00:17:23;2.93;;;1.23;;
15412;SDS011;7805;49.554;7.632;2023-04-01T00:19:49;5.40;;;1.23;;
15412;SDS011;7805;49.554;7.632;2023-04-01T00:22:15;3.03;;;0.90;;
15412;SDS011;7805;49.554;7.632;2023-04-01T00:24:41;3.00;;;0.90;;
15412;SDS011;7805;49.554;7.632;2023-04-01T00:27:07;5.80;;;1.20;;
15412;SDS011;7805;49.554;7.632;2023-04-01T00:29:33;4.87;;;1.30;;
15412;SDS011;7805;49.554;7.632;2023-04-01T00:31:59;2.70;;;0.97;;
15412;SDS011;7805;49.554;7.632;2023-04-01T00:34:25;4.60;;;1.53;;
15412;SDS011;7805;49.554;7.632;2023-04-01T00:36:51;5.60;;;1.17;;
15412;SDS011;7805;49.554;7.632;2023-04-01T00:39:18;5.90;;;1.13;;
15412;SDS011;7805;49.554;7.632;2023-04-01T00:41:44;3.07;;;0.77;;
15412;SDS011;7805;49.554;7.632;2023-04-01T00:44:20;3.50;;;1.17;;
15412;SDS011;7805;49.554;7.632;2023-04-01T00:46:51;5.30;;;1.27;;
15412;SDS011;7805;49.554;7.632;2023-04-01T00:49:21;3.87;;;1.60;;
15412;SDS011;7805;49.554;7.632;2023-04-01T00:51:51;4.17;;;1.10;;
15412;SDS011;7805;49.554;7.632;2023-04-01T00:54:20;6.70;;;1.20;;
15412;SDS011;7805;49.554;7.632;2023-04-01T00:56:57;4.93;;;1.13;;
15412;SDS011;7805;49.554;7.632;2023-04-01T00:59:36;4.60;;;1.00;;
15412;SDS011;7805;49.554;7.632;2023-04-01T01:02:14;4.60;;;1.33;;
15412;SDS011;7805;49.554;7.632;2023-04-01T01:04:41;3.87;;;1.10;;
15412;SDS011;7805;49.554;7.632;2023-04-01T01:12:25;4.77;;;1.30;;
15412;SDS011;7805;49.554;7.632;2023-04-01T01:20:34;5.53;;;0.70;;
15412;SDS011;7805;49.554;7.632;2023-04-01T01:31:37;6.37;;;1.47;;
15412;SDS011;7805;49.554;7.632;2023-04-01T01:34:27;5.07;;;1.30;;
15412;SDS011;7805;49.554;7.632;2023-04-01T01:36:58;5.67;;;1.10;;
15412;SDS011;7805;49.554;7.632;2023-04-01T01:39:30;3.33;;;1.03;;
15412;SDS011;7805;49.554;7.632;2023-04-01T01:42:00;4.50;;;0.97;;
15412;SDS011;7805;49.554;7.632;2023-04-01T01:44:29;4.60;;;1.20;;
15412;SDS011;7805;49.554;7.632;2023-04-01T01:46:57;4.07;;;1.37;;
15412;SDS011;7805;49.554;7.632;2023-04-01T01:49:24;4.40;;;1.07;;
15412;SDS011;7805;49.554;7.632;2023-04-01T01:51:52;6.20;;;1.23;;
15412;SDS011;7805;49.554;7.632;2023-04-01T01:54:17;3.80;;;1.10;;
15412;SDS011;7805;49.554;7.632;2023-04-01T01:56:45;4.30;;;1.30;;
15412;SDS011;7805;49.554;7.632;2023-04-01T01:59:13;4.23;;;0.83;;
15412;SDS011;7805;49.554;7.632;2023-04-01T02:01:45;3.53;;;1.20;;
15412;SDS011;7805;49.554;7.632;2023-04-01T02:04:14;4.33;;;1.13;;
15412;SDS011;7805;49.554;7.632;2023-04-01T02:06:44;5.43;;;0.87;;
15412;SDS011;7805;49.554;7.632;2023-04-01T02:09:14;3.53;;;1.10;;
15412;SDS011;7805;49.554;7.632;2023-04-01T02:11:57;4.47;;;1.47;;
15412;SDS011;7805;49.554;7.632;2023-04-01T02:14:26;5.20;;;1.00;;
15412;SDS011;7805;49.554;7.632;2023-04-01T02:17:12;3.60;;;1.07;;
15412;SDS011;7805;49.554;7.632;2023-04-01T02:20:23;4.27;;;1.27;;
15412;SDS011;7805;49.554;7.632;2023-04-01T02:22:36;2.47;;;1.03;;
15412;SDS011;7805;49.554;7.632;2023-04-01T02:25:07;9.60;;;1.50;;
15412;SDS011;7805;49.554;7.632;2023-04-01T02:27:38;3.47;;;1.23;;
15412;SDS011;7805;49.554;7.632;2023-04-01T02:30:04;3.33;;;0.80;;
15412;SDS011;7805;49.554;7.632;2023-04-01T02:32:31;5.20;;;1.17;;
15412;SDS011;7805;49.554;7.632;2023-04-01T02:34:59;6.10;;;1.20;;
15412;SDS011;7805;49.554;7.632;2023-04-01T02:37:28;3.13;;;1.20;;
15412;SDS011;7805;49.554;7.632;2023-04-01T02:39:53;4.27;;;1.33;;
15412;SDS011;7805;49.554;7.632;2023-04-01T02:42:19;4.27;;;1.33;;
15412;SDS011;7805;49.554;7.632;2023-04-01T02:44:45;4.17;;;1.50;;
15412;SDS011;7805;49.554;7.632;2023-04-01T02:47:10;6.17;;;1.57;;
15412;SDS011;7805;49.554;7.632;2023-04-01T02:49:36;5.60;;;1.50;;
15412;SDS011;7805;49.554;7.632;2023-04-01T02:52:01;2.83;;;1.00;;
15412;SDS011;7805;49.554;7.632;2023-04-01T02:54:27;2.87;;;0.87;;
15412;SDS011;7805;49.554;7.632;2023-04-01T02:56:53;6.53;;;1.43;;
15412;SDS011;7805;49.554;7.632;2023-04-01T02:59:18;6.83;;;1.63;;
15412;SDS011;7805;49.554;7.632;2023-04-01T03:01:44;6.80;;;1.63;;
15412;SDS011;7805;49.554;7.632;2023-04-01T03:04:09;5.50;;;1.20;;
15412;SDS011;7805;49.554;7.632;2023-04-01T03:06:35;5.10;;;1.10;;
15412;SDS011;7805;49.554;7.632;2023-04-01T03:09:01;4.63;;;1.23;;
15412;SDS011;7805;49.554;7.632;2023-04-01T03:11:27;5.67;;;1.30;;
15412;SDS011;7805;49.554;7.632;2023-04-01T03:13:52;2.87;;;1.40;;
15412;SDS011;7805;49.554;7.632;2023-04-01T03:16:18;2.40;;;0.77;;
15412;SDS011;7805;49.554;7.632;2023-04-01T03:18:44;6.30;;;1.30;;
15412;SDS011;7805;49.554;7.632;2023-04-01T03:21:17;5.03;;;0.93;;
15412;SDS011;7805;49.554;7.632;2023-04-01T03:23:47;3.23;;;0.80;;
15412;SDS011;7805;49.554;7.632;2023-04-01T03:26:12;4.00;;;1.40;;
15412;SDS011;7805;49.554;7.632;2023-04-01T03:28:39;5.40;;;1.23;;
15412;SDS011;7805;49.554;7.632;2023-04-01T03:31:04;3.70;;;1.43;;
15412;SDS011;7805;49.554;7.632;2023-04-01T03:33:31;5.27;;;1.23;;
15412;SDS011;7805;49.554;7.632;2023-04-01T03:35:57;7.47;;;1.30;;
15412;SDS011;7805;49.554;7.632;2023-04-01T03:38:23;7.73;;;1.50;;
15412;SDS011;7805;49.554;7.632;2023-04-01T03:40:48;5.93;;;1.53;;
15412;SDS011;7805;49.554;7.632;2023-04-01T03:43:14;6.53;;;1.70;;
15412;SDS011;7805;49.554;7.632;2023-04-01T03:45:48;6.13;;;1.20;;
15412;SDS011;7805;49.554;7.632;2023-04-01T03:48:15;4.37;;;1.23;;
15412;SDS011;7805;49.554;7.632;2023-04-01T03:50:41;7.07;;;1.40;;
15412;SDS011;7805;49.554;7.632;2023-04-01T03:53:07;5.80;;;1.53;;
15412;SDS011;7805;49.554;7.632;2023-04-01T03:55:33;4.27;;;1.20;;
15412;SDS011;7805;49.554;7.632;2023-04-01T03:58:00;6.67;;;1.40;;
15412;SDS011;7805;49.554;7.632;2023-04-01T04:00:27;4.33;;;1.57;;
15412;SDS011;7805;49.554;7.632;2023-04-01T04:02:55;4.03;;;1.37;;
15412;SDS011;7805;49.554;7.632;2023-04-01T04:05:24;3.13;;;1.07;;
15412;SDS011;7805;49.554;7.632;2023-04-01T04:07:50;4.60;;;1.37;;
15412;SDS011;7805;49.554;7.632;2023-04-01T04:10:16;7.33;;;1.60;;
15412;SDS011;7805;49.554;7.632;2023-04-01T04:12:42;4.30;;;1.30;;
15412;SDS011;7805;49.554;7.632;2023-04-01T04:15:08;3.87;;;1.10;;
15412;SDS011;7805;49.554;7.632;2023-04-01T04:17:35;3.90;;;1.40;;
15412;SDS011;7805;49.554;7.632;2023-04-01T04:20:00;5.97;;;1.23;;
15412;SDS011;7805;49.554;7.632;2023-04-01T04:22:26;4.00;;;1.30;;
15412;SDS011;7805;49.554;7.632;2023-04-01T04:24:52;4.57;;;1.30;;
15412;SDS011;7805;49.554;7.632;2023-04-01T04:27:17;5.27;;;1.33;;
15412;SDS011;7805;49.554;7.632;2023-04-01T04:29:43;3.77;;;1.30;;
15412;SDS011;7805;49.554;7.632;2023-04-01T04:32:08;6.73;;;1.20;;
15412;SDS011;7805;49.554;7.632;2023-04-01T04:34:34;4.10;;;1.23;;
15412;SDS011;7805;49.554;7.632;2023-04-01T04:37:00;4.37;;;0.90;;
15412;SDS011;7805;49.554;7.632;2023-04-01T04:39:25;4.47;;;1.00;;
15412;SDS011;7805;49.554;7.632;2023-04-01T04:41:51;3.20;;;1.07;;
15412;SDS011;7805;49.554;7.632;2023-04-01T04:44:17;5.40;;;1.03;;
15412;SDS011;7805;49.554;7.632;2023-04-01T04:46:42;3.47;;;1.20;;
15412;SDS011;7805;49.554;7.632;2023-04-01T04:49:08;4.10;;;1.23;;
15412;SDS011;7805;49.554;7.632;2023-04-01T04:51:33;2.97;;;0.87;;
15412;SDS011;7805;49.554;7.632;2023-04-01T04:54:00;2.67;;;0.97;;
15412;SDS011;7805;49.554;7.632;2023-04-01T04:56:27;3.03;;;0.80;;
15412;SDS011;7805;49.554;7.632;2023-04-01T04:58:53;3.13;;;1.47;;
15412;SDS011;7805;49.554;7.632;2023-04-01T05:01:19;3.60;;;0.77;;
15412;SDS011;7805;49.554;7.632;2023-04-01T05:03:45;5.33;;;1.23;;
15412;SDS011;7805;49.554;7.632;2023-04-01T05:06:11;3.40;;;1.13;;
15412;SDS011;7805;49.554;7.632;2023-04-01T05:08:38;6.23;;;1.17;;
15412;SDS011;7805;49.554;7.632;2023-04-01T05:11:06;5.17;;;1.10;;
15412;SDS011;7805;49.554;7.632;2023-04-01T05:13:34;3.67;;;1.67;;
15412;SDS011;7805;49.554;7.632;2023-04-01T05:16:01;4.83;;;1.30;;
15412;SDS011;7805;49.554;7.632;2023-04-01T05:18:26;4.80;;;0.90;;
15412;SDS011;7805;49.554;7.632;2023-04-01T05:20:52;4.40;;;1.37;;
15412;SDS011;7805;49.554;7.632;2023-04-01T05:23:19;2.97;;;0.70;;
15412;SDS011;7805;49.554;7.632;2023-04-01T05:25:50;1.83;;;0.80;;
15412;SDS011;7805;49.554;7.632;2023-04-01T05:28:17;3.77;;;1.00;;
15412;SDS011;7805;49.554;7.632;2023-04-01T05:30:44;4.47;;;1.30;;
15412;SDS011;7805;49.554;7.632;2023-04-01T05:33:11;1.97;;;1.00;;
15412;SDS011;7805;49.554;7.632;2023-04-01T05:35:37;4.70;;;2.17;;
15412;SDS011;7805;49.554;7.632;2023-04-01T05:38:04;2.53;;;1.07;;
15412;SDS011;7805;49.554;7.632;2023-04-01T05:40:29;2.90;;;0.87;;
15412;SDS011;7805;49.554;7.632;2023-04-01T05:42:55;3.87;;;1.20;;
15412;SDS011;7805;49.554;7.632;2023-04-01T05:45:21;5.47;;;3.27;;
15412;SDS011;7805;49.554;7.632;2023-04-01T05:47:47;3.53;;;1.03;;
15412;SDS011;7805;49.554;7.632;2023-04-01T05:50:12;2.43;;;1.03;;
15412;SDS011;7805;49.554;7.632;2023-04-01T05:52:38;3.33;;;0.90;;
15412;SDS011;7805;49.554;7.632;2023-04-01T05:55:04;3.77;;;1.00;;
15412;SDS011;7805;49.554;7.632;2023-04-01T05:57:30;4.43;;;1.07;;
15412;SDS011;7805;49.554;7.632;2023-04-01T05:59:56;4.23;;;1.00;;
15412;SDS011;7805;49.554;7.632;2023-04-01T06:02:21;2.83;;;1.00;;
15412;SDS011;7805;49.554;7.632;2023-04-01T06:04:47;5.90;;;1.70;;
15412;SDS011;7805;49.554;7.632;2023-04-01T06:07:16;3.10;;;1.60;;
15412;SDS011;7805;49.554;7.632;2023-04-01T06:09:43;6.37;;;1.40;;
15412;SDS011;7805;49.554;7.632;2023-04-01T06:14:58;6.60;;;2.27;;
15412;SDS011;7805;49.554;7.632;2023-04-01T06:18:07;2.07;;;1.60;;
15412;SDS011;7805;49.554;7.632;2023-04-01T06:23:14;2.27;;;1.00;;
15412;SDS011;7805;49.554;7.632;2023-04-01T06:26:06;1.70;;;0.80;;
15412;SDS011;7805;49.554;7.632;2023-04-01T06:28:45;2.10;;;0.80;;
15412;SDS011;7805;49.554;7.632;2023-04-01T06:39:36;2.17;;;0.70;;
15412;SDS011;7805;49.554;7.632;2023-04-01T06:50:06;3.77;;;0.80;;
15412;SDS011;7805;49.554;7.632;2023-04-01T06:55:38;1.47;;;0.80;;
15412;SDS011;7805;49.554;7.632;2023-04-01T06:58:11;2.47;;;0.80;;
15412;SDS011;7805;49.554;7.632;2023-04-01T07:00:44;1.60;;;0.60;;
15412;SDS011;7805;49.554;7.632;2023-04-01T07:05:58;1.83;;;0.80;;
15412;SDS011;7805;49.554;7.632;2023-04-01T07:08:27;2.40;;;0.67;;
15412;SDS011;7805;49.554;7.632;2023-04-01T07:18:50;0.90;;;0.90;;
15412;SDS011;7805;49.554;7.632;2023-04-01T07:21:29;1.30;;;0.70;;
15412;SDS011;7805;49.554;7.632;2023-04-01T07:24:13;1.67;;;1.57;;
15412;SDS011;7805;49.554;7.632;2023-04-01T07:26:45;0.90;;;0.83;;
15412;SDS011;7805;49.554;7.632;2023-04-01T07:29:12;1.70;;;0.53;;
15412;SDS011;7805;49.554;7.632;2023-04-01T07:37:15;0.87;;;0.77;;
15412;SDS011;7805;49.554;7.632;2023-04-01T07:40:01;0.83;;;0.40;;
15412;SDS011;7805;49.554;7.632;2023-04-01T07:42:41;1.57;;;0.50;;
15412;SDS011;7805;49.554;7.632;2023-04-01T07:56:10;2.20;;;0.70;;
15412;SDS011;7805;49.554;7.632;2023-04-01T08:07:30;0.80;;;0.70;;
15412;SDS011;7805;49.554;7.632;2023-04-01T08:10:32;1.80;;;0.73;;
15412;SDS011;7805;49.554;7.632;2023-04-01T08:21:04;0.77;;;0.50;;
15412;SDS011;7805;49.554;7.632;2023-04-01T08:23:51;0.40;;;0.40;;
15412;SDS011;7805;49.554;7.632;2023-04-01T08:26:34;1.27;;;0.83;;
15412;SDS011;7805;49.554;7.632;2023-04-01T08:34:33;0.60;;;0.60;;
15412;SDS011;7805;49.554;7.632;2023-04-01T08:37:04;0.80;;;0.80;;
15412;SDS011;7805;49.554;7.632;2023-04-01T08:39:44;0.83;;;0.50;;
15412;SDS011;7805;49.554;7.632;2023-04-01T08:42:31;0.30;;;0.30;;
15412;SDS011;7805;49.554;7.632;2023-04-01T09:15:54;0.87;;;0.73;;
15412;SDS011;7805;49.554;7.632;2023-04-01T09:24:21;1.27;;;0.67;;
15412;SDS011;7805;49.554;7.632;2023-04-01T09:32:40;0.67;;;0.67;;
15412;SDS011;7805;49.554;7.632;2023-04-01T09:37:53;0.40;;;0.40;;
15412;SDS011;7805;49.554;7.632;2023-04-01T09:43:39;0.30;;;0.30;;
15412;SDS011;7805;49.554;7.632;2023-04-01T10:18:05;0.50;;;0.50;;
15412;SDS011;7805;49.554;7.632;2023-04-01T10:26:06;6.13;;;4.00;;
15412;SDS011;7805;49.554;7.632;2023-04-01T10:29:33;14.63;;;9.27;;
15412;SDS011;7805;49.554;7.632;2023-04-01T10:35:08;25.53;;;15.70;;
15412;SDS011;7805;49.554;7.632;2023-04-01T10:40:27;4.07;;;3.03;;
15412;SDS011;7805;49.554;7.632;2023-04-01T10:49:13;18.43;;;11.57;;
15412;SDS011;7805;49.554;7.632;2023-04-01T10:52:06;11.77;;;6.40;;
15412;SDS011;7805;49.554;7.632;2023-04-01T10:58:21;15.33;;;8.57;;
15412;SDS011;7805;49.554;7.632;2023-04-01T11:07:00;9.97;;;5.50;;
15412;SDS011;7805;49.554;7.632;2023-04-01T11:23:28;17.33;;;10.40;;
15412;SDS011;7805;49.554;7.632;2023-04-01T11:29:04;22.57;;;13.03;;
15412;SDS011;7805;49.554;7.632;2023-04-01T11:31:47;5.67;;;4.23;;
15412;SDS011;7805;49.554;7.632;2023-04-01T11:38:11;1.10;;;1.10;;
15412;SDS011;7805;49.554;7.632;2023-04-01T11:43:12;3.47;;;0.80;;
15412;SDS011;7805;49.554;7.632;2023-04-01T11:49:00;2.90;;;2.10;;
15412;SDS011;7805;49.554;7.632;2023-04-01T12:14:29;3.13;;;2.73;;
15412;SDS011;7805;49.554;7.632;2023-04-01T12:22:56;4.07;;;3.20;;
15412;SDS011;7805;49.554;7.632;2023-04-01T12:33:27;2.93;;;1.47;;
15412;SDS011;7805;49.554;7.632;2023-04-01T12:41:53;5.03;;;3.00;;
15412;SDS011;7805;49.554;7.632;2023-04-01T12:55:48;1.00;;;0.93;;
15412;SDS011;7805;49.554;7.632;2023-04-01T13:14:54;4.27;;;1.80;;
15412;SDS011;7805;49.554;7.632;2023-04-01T13:20:34;5.37;;;3.17;;
15412;SDS011;7805;49.554;7.632;2023-04-01T13:33:27;1.60;;;1.50;;
15412;SDS011;7805;49.554;7.632;2023-04-01T13:52:36;1.83;;;1.40;;
15412;SDS011;7805;49.554;7.632;2023-04-01T14:20:40;2.50;;;1.23;;
15412;SDS011;7805;49.554;7.632;2023-04-01T14:47:48;1.43;;;0.87;;
15412;SDS011;7805;49.554;7.632;2023-04-01T14:50:27;1.00;;;0.90;;
15412;SDS011;7805;49.554;7.632;2023-04-01T15:08:46;1.50;;;0.90;;
15412;SDS011;7805;49.554;7.632;2023-04-01T15:11:32;0.87;;;0.60;;
15412;SDS011;7805;49.554;7.632;2023-04-01T15:16:55;1.13;;;0.60;;
15412;SDS011;7805;49.554;7.632;2023-04-01T15:22:20;1.40;;;0.60;;
15412;SDS011;7805;49.554;7.632;2023-04-01T15:27:43;0.47;;;0.43;;
15412;SDS011;7805;49.554;7.632;2023-04-01T15:32:46;0.60;;;0.60;;
15412;SDS011;7805;49.554;7.632;2023-04-01T15:41:16;1.60;;;1.30;;
15412;SDS011;7805;49.554;7.632;2023-04-01T15:44:01;0.90;;;0.63;;
15412;SDS011;7805;49.554;7.632;2023-04-01T15:46:41;5.37;;;4.60;;
15412;SDS011;7805;49.554;7.632;2023-04-01T15:49:14;0.60;;;0.60;;
15412;SDS011;7805;49.554;7.632;2023-04-01T16:00:22;1.60;;;0.97;;
15412;SDS011;7805;49.554;7.632;2023-04-01T16:03:04;0.57;;;0.57;;
15412;SDS011;7805;49.554;7.632;2023-04-01T16:06:01;3.57;;;1.23;;
15412;SDS011;7805;49.554;7.632;2023-04-01T16:22:28;2.17;;;1.70;;
15412;SDS011;7805;49.554;7.632;2023-04-01T16:25:17;2.27;;;2.07;;
15412;SDS011;7805;49.554;7.632;2023-04-01T16:28:21;1.97;;;0.80;;
15412;SDS011;7805;49.554;7.632;2023-04-01T16:30:54;1.70;;;1.27;;
15412;SDS011;7805;49.554;7.632;2023-04-01T16:37:07;1.13;;;0.50;;
15412;SDS011;7805;49.554;7.632;2023-04-01T16:39:21;1.03;;;0.77;;
15412;SDS011;7805;49.554;7.632;2023-04-01T16:44:44;0.87;;;0.77;;
15412;SDS011;7805;49.554;7.632;2023-04-01T16:47:23;1.90;;;1.70;;
15412;SDS011;7805;49.554;7.632;2023-04-01T16:55:17;1.30;;;1.20;;
15412;SDS011;7805;49.554;7.632;2023-04-01T16:57:51;1.20;;;0.40;;
15412;SDS011;7805;49.554;7.632;2023-04-01T17:03:13;0.80;;;0.70;;
15412;SDS011;7805;49.554;7.632;2023-04-01T17:06:03;0.57;;;0.50;;
15412;SDS011;7805;49.554;7.632;2023-04-01T17:14:28;0.50;;;0.50;;
15412;SDS011;7805;49.554;7.632;2023-04-01T17:22:44;2.20;;;0.73;;
15412;SDS011;7805;49.554;7.632;2023-04-01T17:30:43;1.10;;;0.47;;
15412;SDS011;7805;49.554;7.632;2023-04-01T17:36:20;0.90;;;0.50;;
15412;SDS011;7805;49.554;7.632;2023-04-01T17:39:04;0.67;;;0.53;;
15412;SDS011;7805;49.554;7.632;2023-04-01T17:44:45;0.53;;;0.40;;
15412;SDS011;7805;49.554;7.632;2023-04-01T17:47:21;1.70;;;0.60;;
15412;SDS011;7805;49.554;7.632;2023-04-01T17:52:47;2.70;;;1.70;;
15412;SDS011;7805;49.554;7.632;2023-04-01T18:23:39;1.30;;;1.10;;
15412;SDS011;7805;49.554;7.632;2023-04-01T18:26:14;0.80;;;0.80;;
15412;SDS011;7805;49.554;7.632;2023-04-01T18:31:45;1.10;;;0.43;;
15412;SDS011;7805;49.554;7.632;2023-04-01T18:34:16;1.10;;;0.80;;
15412;SDS011;7805;49.554;7.632;2023-04-01T18:37:17;0.83;;;0.60;;
15412;SDS011;7805;49.554;7.632;2023-04-01T18:40:48;1.30;;;0.50;;
15412;SDS011;7805;49.554;7.632;2023-04-01T18:45:59;1.00;;;0.50;;
15412;SDS011;7805;49.554;7.632;2023-04-01T18:51:34;0.77;;;0.77;;
15412;SDS011;7805;49.554;7.632;2023-04-01T18:54:05;0.87;;;0.87;;
15412;SDS011;7805;49.554;7.632;2023-04-01T18:56:38;1.43;;;1.10;;
15412;SDS011;7805;49.554;7.632;2023-04-01T18:59:11;1.23;;;0.87;;
15412;SDS011;7805;49.554;7.632;2023-04-01T19:25:42;2.00;;;1.17;;
15412;SDS011;7805;49.554;7.632;2023-04-01T19:28:39;2.70;;;1.73;;
15412;SDS011;7805;49.554;7.632;2023-04-01T19:39:48;1.60;;;1.50;;
15412;SDS011;7805;49.554;7.632;2023-04-01T19:48:31;1.40;;;1.30;;
15412;SDS011;7805;49.554;7.632;2023-04-01T19:51:09;1.73;;;1.20;;
15412;SDS011;7805;49.554;7.632;2023-04-01T19:53:38;1.97;;;1.77;;
15412;SDS011;7805;49.554;7.632;2023-04-01T19:56:24;0.90;;;0.90;;
15412;SDS011;7805;49.554;7.632;2023-04-01T20:04:40;1.90;;;1.20;;
15412;SDS011;7805;49.554;7.632;2023-04-01T20:07:18;1.67;;;1.43;;
15412;SDS011;7805;49.554;7.632;2023-04-01T20:12:58;1.73;;;1.50;;
15412;SDS011;7805;49.554;7.632;2023-04-01T20:15:43;0.80;;;0.80;;
15412;SDS011;7805;49.554;7.632;2023-04-01T20:18:20;1.10;;;1.10;;
15412;SDS011;7805;49.554;7.632;2023-04-01T20:20:53;1.47;;;1.30;;
15412;SDS011;7805;49.554;7.632;2023-04-01T20:26:11;1.50;;;1.40;;
15412;SDS011;7805;49.554;7.632;2023-04-01T20:28:44;4.73;;;3.20;;
15412;SDS011;7805;49.554;7.632;2023-04-01T20:31:42;2.13;;;1.90;;
15412;SDS011;7805;49.554;7.632;2023-04-01T20:34:24;1.60;;;1.50;;
15412;SDS011;7805;49.554;7.632;2023-04-01T20:39:44;2.97;;;2.63;;
15412;SDS011;7805;49.554;7.632;2023-04-01T20:53:04;3.40;;;1.37;;
15412;SDS011;7805;49.554;7.632;2023-04-01T20:58:40;2.23;;;1.50;;
15412;SDS011;7805;49.554;7.632;2023-04-01T21:07:20;1.73;;;1.50;;
15412;SDS011;7805;49.554;7.632;2023-04-01T21:12:52;2.30;;;1.80;;
15412;SDS011;7805;49.554;7.632;2023-04-01T21:18:10;3.37;;;1.97;;
15412;SDS011;7805;49.554;7.632;2023-04-01T22:02:33;2.40;;;2.20;;
15412;SDS011;7805;49.554;7.632;2023-04-01T22:07:52;2.50;;;2.30;;
15412;SDS011;7805;49.554;7.632;2023-04-01T22:13:26;2.10;;;2.00;;
15412;SDS011;7805;49.554;7.632;2023-04-01T22:18:45;2.30;;;2.10;;
15412;SDS011;7805;49.554;7.632;2023-04-01T22:21:26;2.77;;;2.50;;
15412;SDS011;7805;49.554;7.632;2023-04-01T22:29:04;2.63;;;2.43;;
15412;SDS011;7805;49.554;7.632;2023-04-01T22:34:20;2.80;;;2.00;;
15412;SDS011;7805;49.554;7.632;2023-04-01T22:37:18;2.33;;;2.13;;
15412;SDS011;7805;49.554;7.632;2023-04-01T22:42:25;2.80;;;2.60;;
15412;SDS011;7805;49.554;7.632;2023-04-01T22:45:18;2.30;;;2.10;;
15412;SDS011;7805;49.554;7.632;2023-04-01T22:48:00;3.20;;;1.63;;
15412;SDS011;7805;49.554;7.632;2023-04-01T22:55:42;2.23;;;2.03;;
15412;SDS011;7805;49.554;7.632;2023-04-01T22:58:14;2.17;;;1.70;;
15412;SDS011;7805;49.554;7.632;2023-04-01T23:00:45;3.87;;;1.80;;
15412;SDS011;7805;49.554;7.632;2023-04-01T23:03:33;1.97;;;1.80;;
15412;SDS011;7805;49.554;7.632;2023-04-01T23:06:05;1.47;;;1.37;;
15412;SDS011;7805;49.554;7.632;2023-04-01T23:16:43;2.00;;;1.50;;
15412;SDS011;7805;49.554;7.632;2023-04-01T23:19:25;1.40;;;1.30;;
15412;SDS011;7805;49.554;7.632;2023-04-01T23:22:02;1.60;;;1.50;;
15412;SDS011;7805;49.554;7.632;2023-04-01T23:24:53;1.77;;;1.67;;
15412;SDS011;7805;49.554;7.632;2023-04-01T23:27:31;1.70;;;1.27;;
15412;SDS011;7805;49.554;7.632;2023-04-01T23:30:02;1.60;;;1.40;;
15412;SDS011;7805;49.554;7.632;2023-04-01T23:32:28;1.60;;;1.50;;
15412;SDS011;7805;49.554;7.632;2023-04-01T23:34:55;1.60;;;1.50;;
15412;SDS011;7805;49.554;7.632;2023-04-01T23:37:23;2.47;;;2.00;;
15412;SDS011;7805;49.554;7.632;2023-04-01T23:39:58;2.07;;;1.50;;
15412;SDS011;7805;49.554;7.632;2023-04-01T23:42:41;2.00;;;1.73;;
15412;SDS011;7805;49.554;7.632;2023-04-01T23:45:13;1.60;;;1.50;;
15412;SDS011;7805;49.554;7.632;2023-04-01T23:47:45;1.90;;;1.63;;
15412;SDS011;7805;49.554;7.632;2023-04-01T23:50:23;1.60;;;1.50;;
15412;SDS011;7805;49.554;7.632;2023-04-01T23:55:43;1.50;;;1.40;;
15412;SDS011;7805;49.554;7.632;2023-04-01T23:58:16;1.30;;;1.20;;
